createdAt,value
2019-05-12T00:00:28.888Z,2.02
2019-05-12T00:02:59.425Z,2.05
2019-05-12T00:05:28.139Z,2.12
2019-05-12T00:07:58.968Z,1.77
2019-05-12T00:10:28.241Z,2.22
2019-05-12T00:12:58.249Z,2.65
2019-05-12T00:15:28.026Z,2.45
2019-05-12T00:17:58.722Z,2.52
2019-05-12T00:20:28.370Z,2.22
2019-05-12T00:23:00.473Z,2.05
2019-05-12T00:25:28.927Z,2.25
2019-05-12T00:27:58.654Z,2.05
2019-05-12T00:30:39.185Z,1.95
2019-05-12T00:33:09.278Z,2.30
2019-05-12T00:35:38.960Z,2.30
2019-05-12T00:38:09.086Z,2.55
2019-05-12T00:40:39.323Z,2.05
2019-05-12T00:43:10.157Z,2.22
2019-05-12T00:45:39.891Z,2.42
2019-05-12T00:48:09.453Z,2.33
2019-05-12T00:50:38.504Z,2.70
2019-05-12T00:53:09.207Z,2.55
2019-05-12T00:55:38.475Z,2.20
2019-05-12T00:58:08.519Z,2.50
2019-05-12T01:00:40.442Z,1.95
2019-05-12T01:03:09.079Z,3.00
2019-05-12T01:05:39.267Z,2.47
2019-05-12T01:08:08.863Z,2.42
2019-05-12T01:10:39.192Z,2.20
2019-05-12T01:13:08.507Z,2.77
2019-05-12T01:15:38.326Z,2.72
2019-05-12T01:18:09.417Z,2.40
2019-05-12T01:20:38.855Z,2.12
2019-05-12T01:23:08.696Z,2.77
2019-05-12T01:25:39.461Z,2.30
2019-05-12T01:28:08.392Z,2.92
2019-05-12T01:30:38.968Z,2.60
2019-05-12T01:33:08.559Z,2.35
2019-05-12T01:35:38.742Z,2.12
2019-05-12T01:38:09.114Z,3.00
2019-05-12T01:40:39.489Z,2.62
2019-05-12T01:43:09.066Z,2.22
2019-05-12T01:45:38.119Z,2.50
2019-05-12T01:48:08.851Z,2.37
2019-05-12T01:50:38.739Z,2.70
2019-05-12T01:53:08.444Z,2.67
2019-05-12T01:55:38.651Z,2.83
2019-05-12T01:58:08.817Z,2.60
2019-05-12T02:00:38.873Z,2.17
2019-05-12T02:03:09.163Z,2.47
2019-05-12T02:05:39.793Z,2.65
2019-05-12T02:08:10.388Z,3.15
2019-05-12T02:10:40.217Z,3.60
2019-05-12T02:13:09.089Z,2.22
2019-05-12T02:15:38.260Z,2.80
2019-05-12T02:18:09.039Z,2.75
2019-05-12T02:20:38.172Z,2.55
2019-05-12T02:23:08.860Z,2.77
2019-05-12T02:25:38.101Z,2.65
2019-05-12T02:28:08.816Z,2.70
2019-05-12T02:30:40.761Z,2.90
2019-05-12T02:33:08.737Z,2.90
2019-05-12T02:35:37.238Z,2.75
2019-05-12T02:38:05.789Z,2.72
2019-05-12T02:40:34.841Z,2.87
2019-05-12T02:43:05.496Z,2.92
2019-05-12T02:45:35.446Z,3.42
2019-05-12T02:48:05.865Z,2.60
2019-05-12T02:50:37.676Z,3.17
2019-05-12T02:53:07.108Z,2.85
2019-05-12T02:55:36.334Z,3.80
2019-05-12T02:58:06.058Z,2.87
2019-05-12T03:00:36.131Z,2.55
2019-05-12T03:03:08.527Z,3.22
2019-05-12T03:05:39.903Z,3.42
2019-05-12T03:08:09.483Z,3.87
2019-05-12T03:10:37.998Z,3.15
2019-05-12T03:13:06.522Z,3.55
2019-05-12T03:15:37.463Z,3.35
2019-05-12T03:18:06.766Z,2.75
2019-05-12T03:20:36.276Z,3.47
2019-05-12T03:23:06.226Z,2.98
2019-05-12T03:25:36.487Z,2.87
2019-05-12T03:28:08.609Z,3.20
2019-05-12T03:30:39.411Z,3.50
2019-05-12T03:33:11.117Z,3.00
2019-05-12T03:35:46.000Z,3.02
2019-05-12T03:38:09.437Z,3.22
2019-05-12T03:40:38.890Z,2.87
2019-05-12T03:43:07.909Z,3.12
2019-05-12T03:45:36.670Z,3.12
2019-05-12T03:48:06.093Z,3.45
2019-05-12T03:50:35.495Z,3.00
2019-05-12T03:53:09.797Z,3.62
2019-05-12T03:55:41.862Z,3.70
2019-05-12T03:58:07.032Z,2.80
2019-05-12T04:00:36.556Z,3.58
2019-05-12T04:03:06.003Z,3.65
2019-05-12T04:05:35.964Z,3.30
2019-05-12T04:08:06.865Z,3.58
2019-05-12T04:10:36.414Z,3.85
2019-05-12T04:13:06.179Z,4.17
2019-05-12T04:15:35.667Z,3.15
2019-05-12T04:18:05.963Z,3.95
2019-05-12T04:20:36.090Z,3.62
2019-05-12T04:23:06.272Z,3.22
2019-05-12T04:25:47.765Z,3.45
2019-05-12T04:28:05.481Z,3.87
2019-05-12T04:30:35.681Z,3.42
2019-05-12T04:33:05.751Z,3.75
2019-05-12T04:35:35.804Z,3.58
2019-05-12T04:38:05.607Z,3.90
2019-05-12T04:40:35.812Z,5.50
2019-05-12T04:43:07.118Z,3.80
2019-05-12T04:45:36.011Z,4.20
2019-05-12T04:48:06.188Z,4.60
2019-05-12T04:50:36.210Z,4.95
2019-05-12T04:53:06.485Z,4.37
2019-05-12T04:55:36.196Z,4.75
2019-05-12T04:58:05.301Z,4.33
2019-05-12T05:00:35.246Z,4.67
2019-05-12T05:03:05.794Z,4.50
2019-05-12T05:05:35.937Z,4.60
2019-05-12T05:08:05.080Z,4.47
2019-05-12T05:10:34.548Z,4.15
2019-05-12T05:13:05.392Z,4.67
2019-05-12T05:15:34.800Z,3.87
2019-05-12T05:18:06.395Z,3.65
2019-05-12T05:20:34.571Z,4.35
2019-05-12T05:23:04.039Z,3.42
2019-05-12T05:25:35.886Z,3.77
2019-05-12T05:28:06.945Z,3.83
2019-05-12T05:30:35.661Z,3.70
2019-05-12T05:33:05.925Z,3.92
2019-05-12T05:35:39.662Z,4.35
2019-05-12T05:38:10.727Z,3.77
2019-05-12T05:40:37.734Z,4.20
2019-05-12T05:43:18.217Z,4.03
2019-05-12T05:45:37.581Z,3.92
2019-05-12T05:48:10.063Z,3.25
2019-05-12T05:50:37.757Z,3.52
2019-05-12T05:53:09.333Z,3.70
2019-05-12T05:55:36.699Z,2.95
2019-05-12T05:58:10.112Z,3.30
2019-05-12T06:00:39.029Z,3.85
2019-05-12T06:03:06.205Z,2.80
2019-05-12T06:05:38.362Z,3.20
2019-05-12T06:08:09.506Z,3.58
2019-05-12T06:10:40.036Z,2.67
2019-05-12T06:13:07.652Z,3.00
2019-05-12T06:15:40.561Z,3.08
2019-05-12T06:18:07.040Z,2.65
2019-05-12T06:20:38.178Z,2.27
2019-05-12T06:23:06.531Z,2.90
2019-05-12T06:25:46.011Z,2.47
2019-05-12T06:28:08.798Z,2.52
2019-05-12T06:30:43.781Z,2.25
2019-05-12T06:33:06.358Z,2.67
2019-05-12T06:35:37.297Z,2.83
2019-05-12T06:38:05.456Z,2.45
2019-05-12T06:40:40.312Z,2.17
2019-05-12T06:43:05.967Z,1.80
2019-05-12T06:45:41.815Z,2.15
2019-05-12T06:48:05.169Z,2.22
2019-05-12T06:50:38.853Z,1.65
2019-05-12T06:53:07.602Z,2.05
2019-05-12T06:55:39.186Z,2.15
2019-05-12T06:58:10.103Z,1.72
2019-05-12T07:00:43.723Z,2.15
2019-05-12T07:03:14.347Z,1.55
2019-05-12T07:05:45.277Z,1.95
2019-05-12T07:08:23.832Z,1.60
2019-05-12T07:10:51.504Z,1.65
2019-05-12T07:13:22.812Z,1.42
2019-05-12T07:15:44.941Z,2.15
2019-05-12T07:18:17.772Z,2.25
2019-05-12T07:20:46.252Z,1.87
2019-05-12T07:23:19.710Z,1.95
2019-05-12T07:25:45.302Z,1.92
2019-05-12T07:28:14.701Z,2.08
2019-05-12T07:30:45.192Z,2.00
2019-05-12T07:33:16.834Z,1.70
2019-05-12T07:35:45.631Z,2.15
2019-05-12T07:38:21.046Z,1.60
2019-05-12T07:40:46.837Z,1.30
2019-05-12T07:43:20.574Z,2.10
2019-05-12T07:45:56.631Z,1.47
2019-05-12T07:48:19.482Z,1.32
2019-05-12T07:50:50.255Z,1.12
2019-05-12T07:53:18.428Z,1.17
2019-05-12T07:55:49.312Z,1.25
2019-05-12T07:58:19.246Z,1.00
2019-05-12T08:00:47.715Z,1.20
2019-05-12T08:03:21.223Z,1.27
2019-05-12T08:05:51.319Z,1.12
2019-05-12T08:08:18.430Z,0.90
2019-05-12T08:10:51.570Z,0.80
2019-05-12T08:13:18.758Z,0.80
2019-05-12T08:15:50.164Z,1.02
2019-05-12T08:18:17.875Z,1.00
2019-05-12T08:20:49.188Z,0.40
2019-05-12T08:23:18.022Z,0.50
2019-05-12T08:25:46.750Z,0.78
2019-05-12T08:28:18.947Z,0.70
2019-05-12T08:30:50.484Z,0.82
2019-05-12T08:33:15.694Z,0.82
2019-05-12T08:35:44.501Z,0.65
2019-05-12T08:38:14.501Z,0.90
2019-05-12T08:40:50.811Z,1.62
2019-05-12T08:43:14.855Z,1.27
2019-05-12T08:45:44.344Z,0.93
2019-05-12T08:48:17.025Z,0.68
2019-05-12T08:50:45.977Z,1.05
2019-05-12T08:53:20.446Z,1.10
2019-05-12T08:55:43.793Z,0.90
2019-05-12T08:58:26.556Z,1.10
2019-05-12T09:00:50.176Z,1.17
2019-05-12T09:03:20.505Z,1.00
2019-05-12T09:05:47.081Z,1.22
2019-05-12T09:08:16.362Z,1.20
2019-05-12T09:10:45.240Z,1.22
2019-05-12T09:13:15.928Z,1.00
2019-05-12T09:15:44.476Z,1.35
2019-05-12T09:18:14.391Z,0.88
2019-05-12T09:20:50.016Z,1.12
2019-05-12T09:23:13.755Z,0.90
2019-05-12T09:25:45.294Z,0.88
2019-05-12T09:28:13.843Z,0.72
2019-05-12T09:30:48.032Z,0.65
2019-05-12T09:33:14.081Z,0.85
2019-05-12T09:35:43.779Z,0.65
2019-05-12T09:38:21.332Z,1.00
2019-05-12T09:40:43.756Z,0.90
2019-05-12T09:43:13.669Z,0.80
2019-05-12T09:45:52.215Z,0.98
2019-05-12T09:48:14.035Z,0.82
2019-05-12T09:50:46.329Z,0.88
2019-05-12T09:53:14.653Z,0.93
2019-05-12T09:55:43.912Z,0.85
2019-05-12T09:58:22.448Z,1.12
2019-05-12T10:00:44.591Z,0.50
2019-05-12T10:03:14.390Z,0.62
2019-05-12T10:05:44.268Z,0.93
2019-05-12T10:08:13.910Z,0.60
2019-05-12T10:10:46.786Z,0.55
2019-05-12T10:13:20.170Z,0.72
2019-05-12T10:15:45.964Z,0.80
2019-05-12T10:18:14.518Z,0.72
2019-05-12T10:20:44.123Z,1.15
2019-05-12T10:23:16.527Z,0.70
2019-05-12T10:25:44.567Z,0.70
2019-05-12T10:28:16.079Z,0.60
2019-05-12T10:30:47.054Z,0.50
2019-05-12T10:33:14.339Z,0.40
2019-05-12T10:35:43.860Z,0.55
2019-05-12T10:38:14.041Z,0.55
2019-05-12T10:40:44.537Z,1.00
2019-05-12T10:43:12.790Z,0.93
2019-05-12T10:45:44.047Z,0.70
2019-05-12T10:48:14.109Z,0.60
2019-05-12T10:50:44.310Z,0.80
2019-05-12T10:53:15.623Z,0.72
2019-05-12T10:55:44.258Z,0.70
2019-05-12T10:58:14.542Z,0.70
2019-05-12T11:00:44.407Z,0.70
2019-05-12T11:03:15.340Z,0.80
2019-05-12T11:05:44.047Z,1.30
2019-05-12T11:08:14.257Z,0.80
2019-05-12T11:10:43.333Z,0.85
2019-05-12T11:13:14.505Z,0.90
2019-05-12T11:15:46.220Z,0.47
2019-05-12T11:18:13.743Z,0.80
2019-05-12T11:20:44.885Z,0.72
2019-05-12T11:23:13.777Z,0.62
2019-05-12T11:25:43.980Z,0.70
2019-05-12T11:28:14.026Z,0.78
2019-05-12T11:30:43.646Z,0.50
2019-05-12T11:33:12.659Z,0.60
2019-05-12T11:35:43.353Z,0.90
2019-05-12T11:38:13.412Z,0.68
2019-05-12T11:40:43.723Z,0.88
2019-05-12T11:43:14.385Z,1.45
2019-05-12T11:45:44.209Z,0.80
2019-05-12T11:48:16.861Z,0.85
2019-05-12T11:50:51.147Z,0.70
2019-05-12T11:53:16.413Z,0.65
2019-05-12T11:55:45.165Z,0.85
2019-05-12T11:58:16.441Z,0.82
2019-05-12T12:00:46.930Z,0.62
2019-05-12T12:03:18.181Z,0.55
2019-05-12T12:05:46.256Z,0.45
2019-05-12T12:08:16.237Z,0.80
2019-05-12T12:10:45.027Z,0.53
2019-05-12T12:13:14.324Z,0.60
2019-05-12T12:15:43.181Z,0.80
2019-05-12T12:18:13.422Z,0.55
2019-05-12T12:20:44.244Z,0.98
2019-05-12T12:23:14.066Z,1.20
2019-05-12T12:25:48.167Z,1.30
2019-05-12T12:28:13.693Z,0.95
2019-05-12T12:30:47.397Z,0.95
2019-05-12T12:33:14.321Z,0.60
2019-05-12T12:35:44.510Z,0.68
2019-05-12T12:38:14.109Z,0.60
2019-05-12T12:40:44.150Z,0.72
2019-05-12T12:43:13.819Z,0.80
2019-05-12T12:45:44.136Z,0.78
2019-05-12T12:48:13.694Z,0.68
2019-05-12T12:50:44.402Z,0.82
2019-05-12T12:53:12.578Z,0.80
2019-05-12T12:55:43.435Z,0.70
2019-05-12T12:58:13.950Z,0.90
2019-05-12T13:00:47.041Z,1.10
2019-05-12T13:03:14.166Z,1.07
2019-05-12T13:05:43.905Z,0.60
2019-05-12T13:08:12.474Z,0.90
2019-05-12T13:10:48.709Z,1.35
2019-05-12T13:13:11.127Z,1.37
2019-05-12T13:15:40.156Z,1.50
2019-05-12T13:18:09.295Z,0.98
2019-05-12T13:20:37.947Z,0.98
2019-05-12T13:23:06.393Z,0.93
2019-05-12T13:25:38.757Z,1.15
2019-05-12T13:28:10.351Z,1.15
2019-05-12T13:30:45.523Z,0.80
2019-05-12T13:33:08.794Z,0.90
2019-05-12T13:35:38.156Z,1.15
2019-05-12T13:38:06.604Z,1.30
2019-05-12T13:40:39.204Z,1.37
2019-05-12T13:43:12.784Z,1.50
2019-05-12T13:45:35.811Z,0.70
2019-05-12T13:48:04.395Z,0.80
2019-05-12T13:50:34.221Z,0.85
2019-05-12T13:53:08.678Z,0.65
2019-05-12T13:55:34.315Z,0.68
2019-05-12T13:58:04.112Z,0.62
2019-05-12T14:00:33.611Z,0.95
2019-05-12T14:03:08.018Z,0.50
2019-05-12T14:05:32.715Z,3.70
2019-05-12T14:08:01.178Z,1.07
2019-05-12T14:10:30.111Z,1.10
2019-05-12T14:12:58.637Z,0.80
2019-05-12T14:15:27.172Z,1.30
2019-05-12T14:17:55.631Z,1.10
2019-05-12T14:20:24.615Z,0.93
2019-05-12T14:22:53.702Z,1.10
2019-05-12T14:25:30.383Z,2.60
2019-05-12T14:27:53.601Z,1.10
2019-05-12T14:30:24.575Z,2.70
2019-05-12T14:32:57.148Z,0.70
2019-05-12T14:35:23.793Z,0.70
2019-05-12T14:37:54.161Z,0.80
2019-05-12T14:40:29.879Z,1.17
2019-05-12T14:43:03.752Z,0.90
2019-05-12T14:45:30.517Z,1.17
2019-05-12T14:48:07.499Z,0.75
2019-05-12T14:50:33.527Z,0.60
2019-05-12T14:53:03.476Z,0.70
2019-05-12T14:55:33.766Z,1.12
2019-05-12T14:58:03.587Z,4.30
2019-05-12T15:00:39.729Z,3.33
2019-05-12T15:03:12.967Z,0.90
2019-05-12T15:05:41.229Z,5.15
2019-05-12T15:08:13.532Z,2.42
2019-05-12T15:10:42.129Z,1.00
2019-05-12T15:13:10.637Z,1.10
2019-05-12T15:15:39.406Z,2.70
2019-05-12T15:18:10.006Z,1.40
2019-05-12T15:20:41.497Z,2.30
2019-05-12T15:23:08.773Z,3.25
2019-05-12T15:25:37.569Z,0.72
2019-05-12T15:28:06.534Z,1.00
2019-05-12T15:30:36.888Z,1.07
2019-05-12T15:33:05.812Z,1.45
2019-05-12T15:35:35.982Z,2.20
2019-05-12T15:38:09.527Z,0.70
2019-05-12T15:40:35.064Z,1.20
2019-05-12T15:43:05.492Z,0.95
2019-05-12T15:45:34.405Z,1.00
2019-05-12T15:48:04.502Z,1.25
2019-05-12T15:50:34.288Z,0.90
2019-05-12T15:53:03.822Z,0.85
2019-05-12T15:55:34.607Z,4.50
2019-05-12T15:58:05.474Z,2.00
2019-05-12T16:00:38.205Z,2.45
2019-05-12T16:03:06.435Z,1.22
2019-05-12T16:05:36.514Z,1.32
2019-05-12T16:08:05.144Z,1.17
2019-05-12T16:10:34.830Z,0.80
2019-05-12T16:13:03.344Z,0.85
2019-05-12T16:15:34.047Z,1.07
2019-05-12T16:18:05.733Z,0.70
2019-05-12T16:20:33.485Z,0.82
2019-05-12T16:23:04.101Z,0.93
2019-05-12T16:25:34.157Z,1.52
2019-05-12T16:28:07.719Z,1.37
2019-05-12T16:30:33.991Z,1.47
2019-05-12T16:33:03.574Z,6.78
2019-05-12T16:35:34.590Z,1.27
2019-05-12T16:38:06.002Z,2.12
2019-05-12T16:40:34.365Z,1.77
2019-05-12T16:43:03.980Z,1.52
2019-05-12T16:45:34.094Z,0.90
2019-05-12T16:48:07.633Z,0.42
2019-05-12T16:50:34.501Z,1.17
2019-05-12T16:53:03.344Z,1.15
2019-05-12T16:55:44.896Z,0.65
2019-05-12T16:58:04.000Z,1.20
2019-05-12T17:00:33.843Z,0.75
2019-05-12T17:03:03.774Z,1.72
2019-05-12T17:05:33.511Z,0.90
2019-05-12T17:08:04.225Z,1.37
2019-05-12T17:10:33.787Z,0.70
2019-05-12T17:13:07.573Z,1.85
2019-05-12T17:15:33.795Z,0.82
2019-05-12T17:18:04.367Z,0.98
2019-05-12T17:20:33.788Z,0.70
2019-05-12T17:23:03.501Z,1.00
2019-05-12T17:25:34.368Z,1.85
2019-05-12T17:28:05.767Z,1.02
2019-05-12T17:30:34.555Z,0.70
2019-05-12T17:33:05.152Z,0.70
2019-05-12T17:35:34.961Z,1.80
2019-05-12T17:38:04.285Z,4.37
2019-05-12T17:40:33.874Z,9.85
2019-05-12T17:43:09.267Z,6.40
2019-05-12T17:45:34.025Z,6.75
2019-05-12T17:48:07.117Z,7.50
2019-05-12T17:50:34.581Z,4.97
2019-05-12T17:53:04.515Z,3.52
2019-05-12T17:55:33.556Z,4.15
2019-05-12T17:58:03.946Z,2.55
2019-05-12T18:00:33.638Z,2.08
2019-05-12T18:03:15.564Z,4.20
2019-05-12T18:05:33.889Z,1.50
2019-05-12T18:08:05.882Z,9.08
2019-05-12T18:10:37.964Z,5.97
2019-05-12T18:13:04.791Z,4.12
2019-05-12T18:15:37.808Z,2.72
2019-05-12T18:18:04.593Z,2.70
2019-05-12T18:20:39.927Z,1.75
2019-05-12T18:23:04.368Z,1.60
2019-05-12T18:25:36.519Z,2.50
2019-05-12T18:28:03.828Z,11.53
2019-05-12T18:30:32.513Z,1.65
2019-05-12T18:33:05.021Z,1.75
2019-05-12T18:35:31.405Z,0.80
2019-05-12T18:38:00.279Z,2.52
2019-05-12T18:40:30.258Z,5.58
2019-05-12T18:42:59.167Z,1.20
2019-05-12T18:45:27.707Z,3.75
2019-05-12T18:47:56.459Z,1.62
2019-05-12T18:50:29.223Z,1.30
2019-05-12T18:52:55.525Z,0.98
2019-05-12T18:55:29.151Z,1.27
2019-05-12T18:57:54.638Z,1.45
2019-05-12T19:00:25.063Z,2.27
2019-05-12T19:02:54.494Z,2.60
2019-05-12T19:05:30.295Z,1.82
2019-05-12T19:07:54.306Z,0.78
2019-05-12T19:10:24.093Z,0.70
2019-05-12T19:13:01.206Z,1.12
2019-05-12T19:15:26.159Z,0.60
2019-05-12T19:17:56.904Z,0.90
2019-05-12T19:20:31.432Z,0.82
2019-05-12T19:22:59.926Z,0.68
2019-05-12T19:25:30.081Z,0.85
2019-05-12T19:28:05.877Z,1.07
2019-05-12T19:30:29.474Z,0.57
2019-05-12T19:33:00.068Z,1.10
2019-05-12T19:35:29.058Z,0.45
2019-05-12T19:38:01.825Z,1.22
2019-05-12T19:40:29.230Z,2.33
2019-05-12T19:43:06.165Z,0.98
2019-05-12T19:45:27.975Z,2.00
2019-05-12T19:47:57.846Z,1.00
2019-05-12T19:50:30.186Z,1.05
2019-05-12T19:52:58.880Z,1.15
2019-05-12T19:55:27.820Z,4.47
2019-05-12T19:57:56.626Z,1.60
2019-05-12T20:00:25.718Z,2.35
2019-05-12T20:02:54.442Z,1.57
2019-05-12T20:05:23.750Z,1.02
2019-05-12T20:07:53.687Z,1.65
2019-05-12T20:10:24.403Z,2.00
2019-05-12T20:12:54.566Z,0.85
2019-05-12T20:15:24.162Z,1.02
2019-05-12T20:17:54.913Z,0.75
2019-05-12T20:20:26.678Z,0.90
2019-05-12T20:22:55.009Z,1.00
2019-05-12T20:25:24.342Z,1.02
2019-05-12T20:27:55.761Z,0.90
2019-05-12T20:30:24.071Z,1.67
2019-05-12T20:32:54.229Z,3.27
2019-05-12T20:35:23.009Z,1.87
2019-05-12T20:37:54.730Z,3.37
2019-05-12T20:40:37.558Z,1.60
2019-05-12T20:43:08.281Z,1.00
2019-05-12T20:45:40.522Z,1.17
2019-05-12T20:48:04.451Z,0.95
2019-05-12T20:50:38.731Z,1.42
2019-05-12T20:53:04.242Z,1.60
2019-05-12T20:55:39.478Z,2.05
2019-05-12T20:58:04.860Z,1.52
2019-05-12T21:00:33.792Z,1.37
2019-05-12T21:03:04.562Z,1.30
2019-05-12T21:05:34.318Z,1.30
2019-05-12T21:08:10.994Z,1.17
2019-05-12T21:10:34.755Z,1.55
2019-05-12T21:13:03.654Z,1.40
2019-05-12T21:15:40.626Z,1.22
2019-05-12T21:18:07.298Z,1.15
2019-05-12T21:20:33.695Z,1.10
2019-05-12T21:23:02.653Z,1.02
2019-05-12T21:25:31.146Z,1.20
2019-05-12T21:28:02.683Z,1.00
2019-05-12T21:30:30.131Z,1.95
2019-05-12T21:33:01.238Z,2.00
2019-05-12T21:35:32.069Z,2.20
2019-05-12T21:37:59.733Z,2.12
2019-05-12T21:40:30.552Z,1.57
2019-05-12T21:42:58.361Z,1.12
2019-05-12T21:45:30.817Z,2.22
2019-05-12T21:47:57.388Z,1.60
2019-05-12T21:50:32.381Z,1.37
2019-05-12T21:52:59.527Z,1.45
2019-05-12T21:55:26.827Z,1.30
2019-05-12T21:57:55.684Z,1.37
2019-05-12T22:00:34.947Z,1.02
2019-05-12T22:03:08.182Z,0.80
2019-05-12T22:05:51.053Z,1.40
2019-05-12T22:08:12.681Z,1.62
2019-05-12T22:10:37.457Z,1.27
2019-05-12T22:13:14.028Z,1.40
2019-05-12T22:15:36.785Z,1.40
2019-05-12T22:18:05.338Z,1.40
2019-05-12T22:20:35.296Z,1.17
2019-05-12T22:23:10.129Z,1.60
2019-05-12T22:25:35.686Z,1.17
2019-05-12T22:28:10.052Z,1.95
2019-05-12T22:30:35.284Z,1.17
2019-05-12T22:33:09.113Z,1.40
2019-05-12T22:35:35.018Z,1.20
2019-05-12T22:38:09.166Z,1.37
2019-05-12T22:40:33.839Z,1.30
2019-05-12T22:43:04.466Z,1.52
2019-05-12T22:45:37.065Z,1.47
2019-05-12T22:48:04.020Z,1.45
2019-05-12T22:50:35.185Z,1.60
2019-05-12T22:53:04.931Z,1.40
2019-05-12T22:55:36.201Z,1.47
2019-05-12T22:58:04.348Z,1.35
2019-05-12T23:00:34.121Z,1.75
2019-05-12T23:03:07.168Z,1.98
2019-05-12T23:05:33.610Z,1.47
2019-05-12T23:08:06.145Z,1.55
2019-05-12T23:10:32.677Z,1.70
2019-05-12T23:13:02.056Z,1.40
2019-05-12T23:15:33.524Z,1.47
2019-05-12T23:18:04.224Z,1.42
2019-05-12T23:20:33.325Z,1.42
2019-05-12T23:23:03.886Z,1.60
2019-05-12T23:25:33.656Z,1.70
2019-05-12T23:28:08.389Z,1.52
2019-05-12T23:30:32.526Z,1.65
2019-05-12T23:33:03.550Z,1.98
2019-05-12T23:35:37.315Z,1.60
2019-05-12T23:38:04.222Z,1.80
2019-05-12T23:40:34.280Z,1.95
2019-05-12T23:43:04.083Z,1.77
2019-05-12T23:45:33.956Z,2.05
2019-05-12T23:48:03.727Z,1.60
2019-05-12T23:50:32.904Z,1.60
2019-05-12T23:53:03.787Z,2.05
2019-05-12T23:55:34.696Z,1.70
2019-05-12T23:58:04.252Z,1.60
